sensor_id;sensor_type;location;lat;lon;timestamp;P1;durP1;ratioP1;P2;durP2;ratioP2
75820;SDS011;64454;51.984;9.838;2023-03-01T00:02:04;7.65;;;6.13;;
75820;SDS011;64454;51.984;9.838;2023-03-01T00:04:31;12.45;;;7.72;;
75820;SDS011;64454;51.984;9.838;2023-03-01T00:06:58;9.77;;;6.95;;
75820;SDS011;64454;51.984;9.838;2023-03-01T00:09:25;11.02;;;7.40;;
75820;SDS011;64454;51.984;9.838;2023-03-01T00:11:53;9.30;;;6.90;;
75820;SDS011;64454;51.984;9.838;2023-03-01T00:14:20;8.63;;;6.88;;
75820;SDS011;64454;51.984;9.838;2023-03-01T00:16:48;8.00;;;6.22;;
75820;SDS011;64454;51.984;9.838;2023-03-01T00:19:16;8.20;;;6.28;;
75820;SDS011;64454;51.984;9.838;2023-03-01T00:21:47;8.35;;;6.70;;
75820;SDS011;64454;51.984;9.838;2023-03-01T00:24:14;9.00;;;6.33;;
75820;SDS011;64454;51.984;9.838;2023-03-01T00:26:41;7.27;;;5.73;;
75820;SDS011;64454;51.984;9.838;2023-03-01T00:29:10;9.85;;;6.60;;
75820;SDS011;64454;51.984;9.838;2023-03-01T00:31:37;8.32;;;5.60;;
75820;SDS011;64454;51.984;9.838;2023-03-01T00:34:04;8.38;;;6.05;;
75820;SDS011;64454;51.984;9.838;2023-03-01T00:36:33;8.60;;;6.10;;
75820;SDS011;64454;51.984;9.838;2023-03-01T00:39:03;10.30;;;6.00;;
75820;SDS011;64454;51.984;9.838;2023-03-01T00:41:36;8.85;;;5.70;;
75820;SDS011;64454;51.984;9.838;2023-03-01T00:44:03;7.65;;;6.00;;
75820;SDS011;64454;51.984;9.838;2023-03-01T00:46:31;8.43;;;5.47;;
75820;SDS011;64454;51.984;9.838;2023-03-01T00:48:58;8.23;;;5.50;;
75820;SDS011;64454;51.984;9.838;2023-03-01T00:51:27;8.57;;;6.17;;
75820;SDS011;64454;51.984;9.838;2023-03-01T00:53:55;9.30;;;6.97;;
75820;SDS011;64454;51.984;9.838;2023-03-01T00:56:25;8.52;;;6.20;;
75820;SDS011;64454;51.984;9.838;2023-03-01T00:58:52;5.97;;;5.30;;
75820;SDS011;64454;51.984;9.838;2023-03-01T01:01:20;7.45;;;5.85;;
75820;SDS011;64454;51.984;9.838;2023-03-01T01:03:54;8.75;;;5.93;;
75820;SDS011;64454;51.984;9.838;2023-03-01T01:06:24;12.93;;;7.53;;
75820;SDS011;64454;51.984;9.838;2023-03-01T01:08:53;12.95;;;7.60;;
75820;SDS011;64454;51.984;9.838;2023-03-01T01:11:21;11.18;;;7.97;;
75820;SDS011;64454;51.984;9.838;2023-03-01T01:13:50;8.82;;;6.47;;
75820;SDS011;64454;51.984;9.838;2023-03-01T01:16:19;9.60;;;6.88;;
75820;SDS011;64454;51.984;9.838;2023-03-01T01:18:47;8.35;;;6.35;;
75820;SDS011;64454;51.984;9.838;2023-03-01T01:21:17;7.40;;;5.30;;
75820;SDS011;64454;51.984;9.838;2023-03-01T01:23:46;8.25;;;5.80;;
75820;SDS011;64454;51.984;9.838;2023-03-01T01:26:14;8.40;;;5.70;;
75820;SDS011;64454;51.984;9.838;2023-03-01T01:28:44;7.53;;;5.17;;
75820;SDS011;64454;51.984;9.838;2023-03-01T01:31:12;9.02;;;5.47;;
75820;SDS011;64454;51.984;9.838;2023-03-01T01:33:40;8.52;;;5.25;;
75820;SDS011;64454;51.984;9.838;2023-03-01T01:36:07;6.57;;;5.30;;
75820;SDS011;64454;51.984;9.838;2023-03-01T01:38:37;7.70;;;4.57;;
75820;SDS011;64454;51.984;9.838;2023-03-01T01:41:07;7.75;;;4.50;;
75820;SDS011;64454;51.984;9.838;2023-03-01T01:43:37;7.15;;;4.80;;
75820;SDS011;64454;51.984;9.838;2023-03-01T01:46:10;7.10;;;5.13;;
75820;SDS011;64454;51.984;9.838;2023-03-01T01:48:50;8.00;;;5.18;;
75820;SDS011;64454;51.984;9.838;2023-03-01T01:51:23;6.65;;;5.03;;
75820;SDS011;64454;51.984;9.838;2023-03-01T01:54:05;8.40;;;5.80;;
75820;SDS011;64454;51.984;9.838;2023-03-01T01:56:38;7.55;;;5.40;;
75820;SDS011;64454;51.984;9.838;2023-03-01T01:59:10;7.30;;;5.40;;
75820;SDS011;64454;51.984;9.838;2023-03-01T02:01:40;5.63;;;4.80;;
75820;SDS011;64454;51.984;9.838;2023-03-01T02:04:07;8.57;;;5.50;;
75820;SDS011;64454;51.984;9.838;2023-03-01T02:06:36;8.48;;;5.93;;
75820;SDS011;64454;51.984;9.838;2023-03-01T02:09:10;7.17;;;5.30;;
75820;SDS011;64454;51.984;9.838;2023-03-01T02:11:42;6.85;;;5.35;;
75820;SDS011;64454;51.984;9.838;2023-03-01T02:14:10;9.73;;;4.93;;
75820;SDS011;64454;51.984;9.838;2023-03-01T02:16:37;6.40;;;4.93;;
75820;SDS011;64454;51.984;9.838;2023-03-01T02:19:04;6.67;;;5.30;;
75820;SDS011;64454;51.984;9.838;2023-03-01T02:21:37;7.28;;;5.28;;
75820;SDS011;64454;51.984;9.838;2023-03-01T02:24:15;7.40;;;5.45;;
75820;SDS011;64454;51.984;9.838;2023-03-01T02:26:56;5.68;;;4.65;;
75820;SDS011;64454;51.984;9.838;2023-03-01T02:29:26;7.18;;;5.18;;
75820;SDS011;64454;51.984;9.838;2023-03-01T02:31:54;7.22;;;5.07;;
75820;SDS011;64454;51.984;9.838;2023-03-01T02:34:25;6.70;;;4.70;;
75820;SDS011;64454;51.984;9.838;2023-03-01T02:36:55;7.15;;;5.38;;
75820;SDS011;64454;51.984;9.838;2023-03-01T02:39:28;6.55;;;4.90;;
75820;SDS011;64454;51.984;9.838;2023-03-01T02:42:02;6.22;;;5.15;;
75820;SDS011;64454;51.984;9.838;2023-03-01T02:44:32;6.82;;;4.85;;
75820;SDS011;64454;51.984;9.838;2023-03-01T02:46:59;6.30;;;4.90;;
75820;SDS011;64454;51.984;9.838;2023-03-01T02:49:29;6.95;;;4.90;;
75820;SDS011;64454;51.984;9.838;2023-03-01T02:55:11;7.40;;;4.70;;
75820;SDS011;64454;51.984;9.838;2023-03-01T02:57:42;7.05;;;5.18;;
75820;SDS011;64454;51.984;9.838;2023-03-01T03:00:13;6.53;;;5.35;;
75820;SDS011;64454;51.984;9.838;2023-03-01T03:02:45;6.85;;;4.82;;
75820;SDS011;64454;51.984;9.838;2023-03-01T03:05:13;7.95;;;5.30;;
75820;SDS011;64454;51.984;9.838;2023-03-01T03:07:43;8.23;;;5.25;;
75820;SDS011;64454;51.984;9.838;2023-03-01T03:10:14;6.22;;;4.90;;
75820;SDS011;64454;51.984;9.838;2023-03-01T03:12:48;6.65;;;4.93;;
75820;SDS011;64454;51.984;9.838;2023-03-01T03:15:18;6.28;;;4.80;;
75820;SDS011;64454;51.984;9.838;2023-03-01T03:17:46;5.60;;;4.70;;
75820;SDS011;64454;51.984;9.838;2023-03-01T03:20:15;7.60;;;5.07;;
75820;SDS011;64454;51.984;9.838;2023-03-01T03:22:45;8.68;;;5.78;;
75820;SDS011;64454;51.984;9.838;2023-03-01T03:25:12;7.22;;;5.00;;
75820;SDS011;64454;51.984;9.838;2023-03-01T03:27:40;7.57;;;5.50;;
75820;SDS011;64454;51.984;9.838;2023-03-01T03:30:10;7.70;;;4.93;;
75820;SDS011;64454;51.984;9.838;2023-03-01T03:32:43;6.45;;;4.63;;
75820;SDS011;64454;51.984;9.838;2023-03-01T03:35:17;6.93;;;4.63;;
75820;SDS011;64454;51.984;9.838;2023-03-01T03:37:46;7.45;;;5.03;;
75820;SDS011;64454;51.984;9.838;2023-03-01T03:40:29;5.63;;;4.40;;
75820;SDS011;64454;51.984;9.838;2023-03-01T03:42:58;6.75;;;4.90;;
75820;SDS011;64454;51.984;9.838;2023-03-01T03:45:25;6.43;;;4.50;;
75820;SDS011;64454;51.984;9.838;2023-03-01T03:47:54;5.97;;;4.75;;
75820;SDS011;64454;51.984;9.838;2023-03-01T03:50:20;6.78;;;4.53;;
75820;SDS011;64454;51.984;9.838;2023-03-01T03:52:47;6.53;;;5.10;;
75820;SDS011;64454;51.984;9.838;2023-03-01T03:55:14;6.68;;;4.88;;
75820;SDS011;64454;51.984;9.838;2023-03-01T03:57:44;7.72;;;5.60;;
75820;SDS011;64454;51.984;9.838;2023-03-01T04:00:16;6.97;;;4.43;;
75820;SDS011;64454;51.984;9.838;2023-03-01T04:02:46;6.55;;;4.35;;
75820;SDS011;64454;51.984;9.838;2023-03-01T04:05:16;7.45;;;4.47;;
75820;SDS011;64454;51.984;9.838;2023-03-01T04:07:44;7.63;;;4.33;;
75820;SDS011;64454;51.984;9.838;2023-03-01T04:10:12;6.28;;;4.55;;
75820;SDS011;64454;51.984;9.838;2023-03-01T04:12:41;8.20;;;5.32;;
75820;SDS011;64454;51.984;9.838;2023-03-01T04:15:09;6.88;;;4.65;;
75820;SDS011;64454;51.984;9.838;2023-03-01T04:17:41;5.05;;;4.13;;
75820;SDS011;64454;51.984;9.838;2023-03-01T04:20:11;6.50;;;4.68;;
75820;SDS011;64454;51.984;9.838;2023-03-01T04:22:43;5.50;;;4.30;;
75820;SDS011;64454;51.984;9.838;2023-03-01T04:25:12;6.75;;;4.85;;
75820;SDS011;64454;51.984;9.838;2023-03-01T04:27:39;6.15;;;4.28;;
75820;SDS011;64454;51.984;9.838;2023-03-01T04:30:07;5.57;;;4.40;;
75820;SDS011;64454;51.984;9.838;2023-03-01T04:32:36;7.35;;;4.28;;
75820;SDS011;64454;51.984;9.838;2023-03-01T04:35:03;9.18;;;4.75;;
75820;SDS011;64454;51.984;9.838;2023-03-01T04:37:30;5.95;;;4.50;;
75820;SDS011;64454;51.984;9.838;2023-03-01T04:39:59;7.63;;;4.57;;
75820;SDS011;64454;51.984;9.838;2023-03-01T04:42:25;5.95;;;4.50;;
75820;SDS011;64454;51.984;9.838;2023-03-01T04:44:52;8.27;;;4.53;;
75820;SDS011;64454;51.984;9.838;2023-03-01T04:47:19;7.95;;;4.82;;
75820;SDS011;64454;51.984;9.838;2023-03-01T04:49:46;4.97;;;4.10;;
75820;SDS011;64454;51.984;9.838;2023-03-01T04:52:13;7.25;;;4.70;;
75820;SDS011;64454;51.984;9.838;2023-03-01T04:54:39;7.30;;;4.70;;
75820;SDS011;64454;51.984;9.838;2023-03-01T04:57:07;5.70;;;4.57;;
75820;SDS011;64454;51.984;9.838;2023-03-01T04:59:34;8.65;;;4.70;;
75820;SDS011;64454;51.984;9.838;2023-03-01T05:02:01;6.03;;;4.95;;
75820;SDS011;64454;51.984;9.838;2023-03-01T05:04:28;8.83;;;5.07;;
75820;SDS011;64454;51.984;9.838;2023-03-01T05:06:56;7.22;;;5.00;;
75820;SDS011;64454;51.984;9.838;2023-03-01T05:09:23;6.68;;;4.90;;
75820;SDS011;64454;51.984;9.838;2023-03-01T05:11:50;9.00;;;5.68;;
75820;SDS011;64454;51.984;9.838;2023-03-01T05:14:19;6.60;;;5.22;;
75820;SDS011;64454;51.984;9.838;2023-03-01T05:16:47;6.90;;;4.60;;
75820;SDS011;64454;51.984;9.838;2023-03-01T05:19:15;6.95;;;5.30;;
75820;SDS011;64454;51.984;9.838;2023-03-01T05:21:47;6.63;;;4.80;;
75820;SDS011;64454;51.984;9.838;2023-03-01T05:24:30;7.00;;;5.10;;
75820;SDS011;64454;51.984;9.838;2023-03-01T05:27:00;8.68;;;5.60;;
75820;SDS011;64454;51.984;9.838;2023-03-01T05:29:30;8.27;;;6.07;;
75820;SDS011;64454;51.984;9.838;2023-03-01T05:32:00;7.90;;;6.32;;
75820;SDS011;64454;51.984;9.838;2023-03-01T05:34:29;8.15;;;6.60;;
75820;SDS011;64454;51.984;9.838;2023-03-01T05:36:57;8.00;;;5.72;;
75820;SDS011;64454;51.984;9.838;2023-03-01T05:39:26;8.90;;;5.90;;
75820;SDS011;64454;51.984;9.838;2023-03-01T05:41:57;8.75;;;6.45;;
75820;SDS011;64454;51.984;9.838;2023-03-01T05:44:26;7.60;;;5.60;;
75820;SDS011;64454;51.984;9.838;2023-03-01T05:46:56;7.75;;;5.70;;
75820;SDS011;64454;51.984;9.838;2023-03-01T05:49:23;8.60;;;6.00;;
75820;SDS011;64454;51.984;9.838;2023-03-01T05:51:51;8.30;;;6.00;;
75820;SDS011;64454;51.984;9.838;2023-03-01T05:54:20;11.38;;;6.63;;
75820;SDS011;64454;51.984;9.838;2023-03-01T05:56:47;8.98;;;6.45;;
75820;SDS011;64454;51.984;9.838;2023-03-01T05:59:14;10.80;;;6.60;;
75820;SDS011;64454;51.984;9.838;2023-03-01T06:01:43;8.50;;;6.77;;
75820;SDS011;64454;51.984;9.838;2023-03-01T06:04:10;9.25;;;6.10;;
75820;SDS011;64454;51.984;9.838;2023-03-01T06:06:37;8.65;;;6.13;;
75820;SDS011;64454;51.984;9.838;2023-03-01T06:09:04;9.57;;;6.30;;
75820;SDS011;64454;51.984;9.838;2023-03-01T06:11:34;8.87;;;6.27;;
75820;SDS011;64454;51.984;9.838;2023-03-01T06:14:01;11.80;;;7.40;;
75820;SDS011;64454;51.984;9.838;2023-03-01T06:16:28;9.77;;;7.53;;
75820;SDS011;64454;51.984;9.838;2023-03-01T06:18:58;10.80;;;7.28;;
75820;SDS011;64454;51.984;9.838;2023-03-01T06:21:25;12.70;;;7.35;;
75820;SDS011;64454;51.984;9.838;2023-03-01T06:23:52;10.52;;;7.22;;
75820;SDS011;64454;51.984;9.838;2023-03-01T06:26:19;12.13;;;7.45;;
75820;SDS011;64454;51.984;9.838;2023-03-01T06:28:46;11.33;;;7.37;;
75820;SDS011;64454;51.984;9.838;2023-03-01T06:31:12;11.02;;;6.97;;
75820;SDS011;64454;51.984;9.838;2023-03-01T06:33:39;9.63;;;6.60;;
75820;SDS011;64454;51.984;9.838;2023-03-01T06:36:08;10.85;;;6.82;;
75820;SDS011;64454;51.984;9.838;2023-03-01T06:38:35;11.05;;;7.00;;
75820;SDS011;64454;51.984;9.838;2023-03-01T06:41:02;10.90;;;7.18;;
75820;SDS011;64454;51.984;9.838;2023-03-01T06:43:29;9.90;;;7.78;;
75820;SDS011;64454;51.984;9.838;2023-03-01T06:45:56;12.15;;;7.80;;
75820;SDS011;64454;51.984;9.838;2023-03-01T06:48:23;11.02;;;7.68;;
75820;SDS011;64454;51.984;9.838;2023-03-01T06:50:49;10.50;;;7.70;;
75820;SDS011;64454;51.984;9.838;2023-03-01T06:53:18;10.88;;;7.32;;
75820;SDS011;64454;51.984;9.838;2023-03-01T06:55:44;9.23;;;7.30;;
75820;SDS011;64454;51.984;9.838;2023-03-01T06:58:11;11.27;;;7.97;;
75820;SDS011;64454;51.984;9.838;2023-03-01T07:00:38;11.55;;;8.43;;
75820;SDS011;64454;51.984;9.838;2023-03-01T07:03:05;12.43;;;8.60;;
75820;SDS011;64454;51.984;9.838;2023-03-01T07:05:33;13.45;;;9.60;;
75820;SDS011;64454;51.984;9.838;2023-03-01T07:08:00;11.73;;;8.43;;
75820;SDS011;64454;51.984;9.838;2023-03-01T07:10:28;11.48;;;8.43;;
75820;SDS011;64454;51.984;9.838;2023-03-01T07:12:55;13.30;;;8.40;;
75820;SDS011;64454;51.984;9.838;2023-03-01T07:15:23;11.10;;;9.00;;
75820;SDS011;64454;51.984;9.838;2023-03-01T07:17:50;13.15;;;8.80;;
75820;SDS011;64454;51.984;9.838;2023-03-01T07:20:18;12.70;;;8.90;;
75820;SDS011;64454;51.984;9.838;2023-03-01T07:22:49;17.60;;;10.93;;
75820;SDS011;64454;51.984;9.838;2023-03-01T07:25:16;13.57;;;9.15;;
75820;SDS011;64454;51.984;9.838;2023-03-01T07:27:44;12.13;;;8.77;;
75820;SDS011;64454;51.984;9.838;2023-03-01T07:30:16;10.95;;;7.85;;
75820;SDS011;64454;51.984;9.838;2023-03-01T07:32:44;12.40;;;8.97;;
75820;SDS011;64454;51.984;9.838;2023-03-01T07:35:11;12.68;;;8.55;;
75820;SDS011;64454;51.984;9.838;2023-03-01T07:37:39;12.15;;;9.35;;
75820;SDS011;64454;51.984;9.838;2023-03-01T07:40:07;11.57;;;8.85;;
75820;SDS011;64454;51.984;9.838;2023-03-01T07:42:35;14.73;;;9.02;;
75820;SDS011;64454;51.984;9.838;2023-03-01T07:45:04;10.30;;;8.20;;
75820;SDS011;64454;51.984;9.838;2023-03-01T07:47:32;11.15;;;7.90;;
75820;SDS011;64454;51.984;9.838;2023-03-01T07:49:59;10.45;;;7.88;;
75820;SDS011;64454;51.984;9.838;2023-03-01T07:52:27;11.48;;;7.60;;
75820;SDS011;64454;51.984;9.838;2023-03-01T07:54:54;11.07;;;7.90;;
75820;SDS011;64454;51.984;9.838;2023-03-01T07:57:21;12.57;;;9.02;;
75820;SDS011;64454;51.984;9.838;2023-03-01T07:59:48;12.02;;;8.70;;
75820;SDS011;64454;51.984;9.838;2023-03-01T08:02:16;10.93;;;9.00;;
75820;SDS011;64454;51.984;9.838;2023-03-01T08:04:43;11.18;;;9.00;;
75820;SDS011;64454;51.984;9.838;2023-03-01T08:07:10;13.23;;;9.48;;
75820;SDS011;64454;51.984;9.838;2023-03-01T08:09:37;14.55;;;9.52;;
75820;SDS011;64454;51.984;9.838;2023-03-01T08:12:04;13.88;;;8.75;;
75820;SDS011;64454;51.984;9.838;2023-03-01T08:14:32;11.13;;;8.90;;
75820;SDS011;64454;51.984;9.838;2023-03-01T08:16:59;14.52;;;9.13;;
75820;SDS011;64454;51.984;9.838;2023-03-01T08:19:29;11.60;;;8.40;;
75820;SDS011;64454;51.984;9.838;2023-03-01T08:21:56;13.63;;;9.02;;
75820;SDS011;64454;51.984;9.838;2023-03-01T08:24:24;12.02;;;9.23;;
75820;SDS011;64454;51.984;9.838;2023-03-01T08:26:51;15.05;;;10.95;;
75820;SDS011;64454;51.984;9.838;2023-03-01T08:29:18;18.77;;;12.32;;
75820;SDS011;64454;51.984;9.838;2023-03-01T08:31:46;16.73;;;12.13;;
75820;SDS011;64454;51.984;9.838;2023-03-01T08:34:15;16.67;;;11.93;;
75820;SDS011;64454;51.984;9.838;2023-03-01T08:36:46;15.98;;;11.20;;
75820;SDS011;64454;51.984;9.838;2023-03-01T08:39:16;14.57;;;11.40;;
75820;SDS011;64454;51.984;9.838;2023-03-01T08:41:46;13.63;;;10.55;;
75820;SDS011;64454;51.984;9.838;2023-03-01T08:44:14;14.93;;;10.75;;
75820;SDS011;64454;51.984;9.838;2023-03-01T08:46:43;16.85;;;12.90;;
75820;SDS011;64454;51.984;9.838;2023-03-01T08:49:11;14.15;;;11.80;;
75820;SDS011;64454;51.984;9.838;2023-03-01T08:51:42;12.57;;;10.90;;
75820;SDS011;64454;51.984;9.838;2023-03-01T08:54:13;12.15;;;10.25;;
75820;SDS011;64454;51.984;9.838;2023-03-01T08:56:43;12.17;;;10.63;;
75820;SDS011;64454;51.984;9.838;2023-03-01T08:59:11;11.48;;;10.27;;
75820;SDS011;64454;51.984;9.838;2023-03-01T09:01:39;13.30;;;10.33;;
75820;SDS011;64454;51.984;9.838;2023-03-01T09:04:08;12.15;;;10.65;;
75820;SDS011;64454;51.984;9.838;2023-03-01T09:06:35;11.43;;;10.07;;
75820;SDS011;64454;51.984;9.838;2023-03-01T09:09:04;11.20;;;10.10;;
75820;SDS011;64454;51.984;9.838;2023-03-01T09:11:34;11.73;;;10.30;;
75820;SDS011;64454;51.984;9.838;2023-03-01T09:14:04;11.85;;;9.80;;
75820;SDS011;64454;51.984;9.838;2023-03-01T09:16:32;12.07;;;9.10;;
75820;SDS011;64454;51.984;9.838;2023-03-01T09:19:01;11.45;;;9.60;;
75820;SDS011;64454;51.984;9.838;2023-03-01T09:21:29;11.97;;;9.00;;
75820;SDS011;64454;51.984;9.838;2023-03-01T09:23:56;11.38;;;9.45;;
75820;SDS011;64454;51.984;9.838;2023-03-01T09:26:25;11.40;;;10.30;;
75820;SDS011;64454;51.984;9.838;2023-03-01T09:28:52;14.02;;;10.90;;
75820;SDS011;64454;51.984;9.838;2023-03-01T09:31:22;11.55;;;10.35;;
75820;SDS011;64454;51.984;9.838;2023-03-01T09:33:51;13.10;;;10.77;;
75820;SDS011;64454;51.984;9.838;2023-03-01T09:36:20;11.60;;;9.90;;
75820;SDS011;64454;51.984;9.838;2023-03-01T09:38:50;11.73;;;10.20;;
75820;SDS011;64454;51.984;9.838;2023-03-01T09:41:22;12.30;;;10.98;;
75820;SDS011;64454;51.984;9.838;2023-03-01T09:44:10;13.13;;;10.90;;
75820;SDS011;64454;51.984;9.838;2023-03-01T09:46:56;12.80;;;10.25;;
75820;SDS011;64454;51.984;9.838;2023-03-01T09:49:25;11.75;;;10.55;;
75820;SDS011;64454;51.984;9.838;2023-03-01T09:51:56;11.63;;;9.97;;
75820;SDS011;64454;51.984;9.838;2023-03-01T09:54:29;10.50;;;9.40;;
75820;SDS011;64454;51.984;9.838;2023-03-01T09:59:57;8.73;;;7.88;;
75820;SDS011;64454;51.984;9.838;2023-03-01T10:02:41;7.20;;;6.43;;
75820;SDS011;64454;51.984;9.838;2023-03-01T10:05:25;6.88;;;5.05;;
75820;SDS011;64454;51.984;9.838;2023-03-01T10:08:06;6.80;;;5.33;;
75820;SDS011;64454;51.984;9.838;2023-03-01T10:10:51;7.20;;;6.00;;
75820;SDS011;64454;51.984;9.838;2023-03-01T10:13:21;7.40;;;5.63;;
75820;SDS011;64454;51.984;9.838;2023-03-01T10:15:56;7.40;;;5.25;;
75820;SDS011;64454;51.984;9.838;2023-03-01T10:18:29;6.33;;;5.20;;
75820;SDS011;64454;51.984;9.838;2023-03-01T10:21:02;6.38;;;5.10;;
75820;SDS011;64454;51.984;9.838;2023-03-01T10:23:39;7.93;;;4.80;;
75820;SDS011;64454;51.984;9.838;2023-03-01T10:26:12;5.50;;;4.90;;
75820;SDS011;64454;51.984;9.838;2023-03-01T10:28:58;7.22;;;5.95;;
75820;SDS011;64454;51.984;9.838;2023-03-01T10:31:33;6.90;;;5.22;;
75820;SDS011;64454;51.984;9.838;2023-03-01T10:36:40;8.27;;;5.43;;
75820;SDS011;64454;51.984;9.838;2023-03-01T10:39:13;5.20;;;4.70;;
75820;SDS011;64454;51.984;9.838;2023-03-01T10:41:52;5.68;;;4.85;;
75820;SDS011;64454;51.984;9.838;2023-03-01T10:44:40;8.20;;;5.13;;
75820;SDS011;64454;51.984;9.838;2023-03-01T10:47:15;5.85;;;5.03;;
75820;SDS011;64454;51.984;9.838;2023-03-01T10:49:52;7.00;;;4.88;;
75820;SDS011;64454;51.984;9.838;2023-03-01T10:52:27;6.32;;;5.20;;
75820;SDS011;64454;51.984;9.838;2023-03-01T10:54:58;7.80;;;5.40;;
75820;SDS011;64454;51.984;9.838;2023-03-01T10:57:31;6.00;;;5.40;;
75820;SDS011;64454;51.984;9.838;2023-03-01T11:00:18;7.27;;;5.53;;
75820;SDS011;64454;51.984;9.838;2023-03-01T11:02:50;6.63;;;5.50;;
75820;SDS011;64454;51.984;9.838;2023-03-01T11:05:29;8.20;;;6.60;;
75820;SDS011;64454;51.984;9.838;2023-03-01T11:07:58;11.77;;;8.20;;
75820;SDS011;64454;51.984;9.838;2023-03-01T11:10:28;7.30;;;5.88;;
75820;SDS011;64454;51.984;9.838;2023-03-01T11:13:07;6.47;;;5.45;;
75820;SDS011;64454;51.984;9.838;2023-03-01T11:15:43;7.05;;;4.97;;
75820;SDS011;64454;51.984;9.838;2023-03-01T11:18:24;6.95;;;5.40;;
75820;SDS011;64454;51.984;9.838;2023-03-01T11:20:55;7.22;;;5.30;;
75820;SDS011;64454;51.984;9.838;2023-03-01T11:23:24;8.02;;;5.32;;
75820;SDS011;64454;51.984;9.838;2023-03-01T11:25:55;7.00;;;5.88;;
75820;SDS011;64454;51.984;9.838;2023-03-01T11:28:25;7.13;;;5.03;;
75820;SDS011;64454;51.984;9.838;2023-03-01T11:30:57;7.13;;;5.40;;
75820;SDS011;64454;51.984;9.838;2023-03-01T11:33:32;8.60;;;5.53;;
75820;SDS011;64454;51.984;9.838;2023-03-01T11:36:07;9.27;;;5.20;;
75820;SDS011;64454;51.984;9.838;2023-03-01T11:38:44;7.50;;;5.00;;
75820;SDS011;64454;51.984;9.838;2023-03-01T11:41:12;7.30;;;5.13;;
75820;SDS011;64454;51.984;9.838;2023-03-01T11:43:47;7.32;;;4.70;;
75820;SDS011;64454;51.984;9.838;2023-03-01T11:46:36;7.65;;;5.50;;
75820;SDS011;64454;51.984;9.838;2023-03-01T11:49:30;7.50;;;4.75;;
75820;SDS011;64454;51.984;9.838;2023-03-01T11:52:42;7.70;;;5.25;;
75820;SDS011;64454;51.984;9.838;2023-03-01T11:55:24;7.85;;;5.40;;
75820;SDS011;64454;51.984;9.838;2023-03-01T11:58:15;7.32;;;4.72;;
75820;SDS011;64454;51.984;9.838;2023-03-01T12:01:17;6.85;;;4.82;;
75820;SDS011;64454;51.984;9.838;2023-03-01T12:07:01;6.63;;;4.68;;
75820;SDS011;64454;51.984;9.838;2023-03-01T12:09:37;6.63;;;4.90;;
75820;SDS011;64454;51.984;9.838;2023-03-01T12:12:27;7.90;;;4.78;;
75820;SDS011;64454;51.984;9.838;2023-03-01T12:18:40;6.07;;;4.57;;
75820;SDS011;64454;51.984;9.838;2023-03-01T12:21:33;5.75;;;4.25;;
75820;SDS011;64454;51.984;9.838;2023-03-01T12:27:23;6.20;;;4.13;;
75820;SDS011;64454;51.984;9.838;2023-03-01T12:30:16;5.43;;;4.32;;
75820;SDS011;64454;51.984;9.838;2023-03-01T12:33:03;5.43;;;4.20;;
75820;SDS011;64454;51.984;9.838;2023-03-01T12:36:02;7.28;;;4.72;;
75820;SDS011;64454;51.984;9.838;2023-03-01T12:38:55;6.97;;;4.10;;
75820;SDS011;64454;51.984;9.838;2023-03-01T12:41:43;6.03;;;4.50;;
75820;SDS011;64454;51.984;9.838;2023-03-01T12:44:27;6.90;;;3.63;;
75820;SDS011;64454;51.984;9.838;2023-03-01T12:47:26;6.63;;;3.90;;
75820;SDS011;64454;51.984;9.838;2023-03-01T12:50:17;7.57;;;4.07;;
75820;SDS011;64454;51.984;9.838;2023-03-01T12:52:49;5.50;;;4.30;;
75820;SDS011;64454;51.984;9.838;2023-03-01T12:55:28;4.97;;;3.95;;
75820;SDS011;64454;51.984;9.838;2023-03-01T12:58:04;5.17;;;3.80;;
75820;SDS011;64454;51.984;9.838;2023-03-01T13:00:49;6.03;;;4.60;;
75820;SDS011;64454;51.984;9.838;2023-03-01T13:03:34;5.03;;;3.75;;
75820;SDS011;64454;51.984;9.838;2023-03-01T13:06:25;6.30;;;4.60;;
75820;SDS011;64454;51.984;9.838;2023-03-01T13:09:04;5.50;;;4.43;;
75820;SDS011;64454;51.984;9.838;2023-03-01T13:11:43;5.57;;;4.20;;
75820;SDS011;64454;51.984;9.838;2023-03-01T13:17:04;4.80;;;3.80;;
75820;SDS011;64454;51.984;9.838;2023-03-01T13:19:56;5.93;;;4.10;;
75820;SDS011;64454;51.984;9.838;2023-03-01T13:22:25;6.25;;;3.67;;
75820;SDS011;64454;51.984;9.838;2023-03-01T13:25:10;5.40;;;4.05;;
75820;SDS011;64454;51.984;9.838;2023-03-01T13:27:43;5.40;;;4.10;;
75820;SDS011;64454;51.984;9.838;2023-03-01T13:33:33;5.55;;;3.88;;
75820;SDS011;64454;51.984;9.838;2023-03-01T13:36:09;4.53;;;3.85;;
75820;SDS011;64454;51.984;9.838;2023-03-01T13:39:01;5.90;;;4.70;;
75820;SDS011;64454;51.984;9.838;2023-03-01T13:41:48;7.15;;;4.13;;
75820;SDS011;64454;51.984;9.838;2023-03-01T13:44:20;6.38;;;4.80;;
75820;SDS011;64454;51.984;9.838;2023-03-01T13:46:53;4.45;;;3.75;;
75820;SDS011;64454;51.984;9.838;2023-03-01T13:49:24;6.10;;;4.20;;
75820;SDS011;64454;51.984;9.838;2023-03-01T13:52:00;4.65;;;3.40;;
75820;SDS011;64454;51.984;9.838;2023-03-01T13:54:30;5.03;;;4.13;;
75820;SDS011;64454;51.984;9.838;2023-03-01T13:57:00;5.10;;;4.10;;
75820;SDS011;64454;51.984;9.838;2023-03-01T13:59:28;4.63;;;3.67;;
75820;SDS011;64454;51.984;9.838;2023-03-01T14:01:56;4.97;;;3.97;;
75820;SDS011;64454;51.984;9.838;2023-03-01T14:04:25;4.28;;;3.80;;
75820;SDS011;64454;51.984;9.838;2023-03-01T14:07:08;4.68;;;3.97;;
75820;SDS011;64454;51.984;9.838;2023-03-01T14:09:45;5.22;;;3.90;;
75820;SDS011;64454;51.984;9.838;2023-03-01T14:12:20;5.05;;;3.80;;
75820;SDS011;64454;51.984;9.838;2023-03-01T14:15:06;5.23;;;4.10;;
75820;SDS011;64454;51.984;9.838;2023-03-01T14:17:46;5.20;;;3.72;;
75820;SDS011;64454;51.984;9.838;2023-03-01T14:20:24;5.10;;;4.20;;
75820;SDS011;64454;51.984;9.838;2023-03-01T14:22:54;4.80;;;3.80;;
75820;SDS011;64454;51.984;9.838;2023-03-01T14:25:26;7.28;;;4.30;;
75820;SDS011;64454;51.984;9.838;2023-03-01T14:27:58;5.35;;;4.25;;
75820;SDS011;64454;51.984;9.838;2023-03-01T14:30:31;4.57;;;3.90;;
75820;SDS011;64454;51.984;9.838;2023-03-01T14:33:05;4.70;;;4.00;;
75820;SDS011;64454;51.984;9.838;2023-03-01T14:35:51;5.65;;;4.20;;
75820;SDS011;64454;51.984;9.838;2023-03-01T14:38:22;6.60;;;4.40;;
75820;SDS011;64454;51.984;9.838;2023-03-01T14:40:58;5.38;;;3.92;;
75820;SDS011;64454;51.984;9.838;2023-03-01T14:43:31;5.13;;;3.80;;
75820;SDS011;64454;51.984;9.838;2023-03-01T14:45:58;4.18;;;3.70;;
75820;SDS011;64454;51.984;9.838;2023-03-01T14:48:26;5.93;;;4.00;;
75820;SDS011;64454;51.984;9.838;2023-03-01T14:50:55;6.22;;;3.85;;
75820;SDS011;64454;51.984;9.838;2023-03-01T14:53:23;6.38;;;3.78;;
75820;SDS011;64454;51.984;9.838;2023-03-01T14:55:53;6.57;;;3.80;;
75820;SDS011;64454;51.984;9.838;2023-03-01T14:58:24;4.85;;;3.88;;
75820;SDS011;64454;51.984;9.838;2023-03-01T15:00:53;5.15;;;3.45;;
75820;SDS011;64454;51.984;9.838;2023-03-01T15:03:24;5.13;;;3.67;;
75820;SDS011;64454;51.984;9.838;2023-03-01T15:05:57;4.90;;;3.40;;
75820;SDS011;64454;51.984;9.838;2023-03-01T15:08:25;3.75;;;3.35;;
75820;SDS011;64454;51.984;9.838;2023-03-01T15:10:59;5.47;;;4.20;;
75820;SDS011;64454;51.984;9.838;2023-03-01T15:13:31;5.28;;;3.72;;
75820;SDS011;64454;51.984;9.838;2023-03-01T15:16:01;6.35;;;3.80;;
75820;SDS011;64454;51.984;9.838;2023-03-01T15:18:33;5.57;;;3.58;;
75820;SDS011;64454;51.984;9.838;2023-03-01T15:21:06;6.05;;;3.90;;
75820;SDS011;64454;51.984;9.838;2023-03-01T15:23:36;7.07;;;4.30;;
75820;SDS011;64454;51.984;9.838;2023-03-01T15:26:05;6.90;;;3.22;;
75820;SDS011;64454;51.984;9.838;2023-03-01T15:28:50;5.00;;;3.60;;
75820;SDS011;64454;51.984;9.838;2023-03-01T15:31:23;4.20;;;3.50;;
75820;SDS011;64454;51.984;9.838;2023-03-01T15:33:52;6.03;;;3.58;;
75820;SDS011;64454;51.984;9.838;2023-03-01T15:36:37;6.07;;;3.90;;